createdAt,value
2022-08-22T00:00:53.433Z,2.97
2022-08-22T00:03:33.467Z,3.35
2022-08-22T00:06:13.668Z,3.08
2022-08-22T00:09:18.443Z,3.38
2022-08-22T00:12:28.627Z,3.50
2022-08-22T00:15:42.638Z,3.50
2022-08-22T00:18:34.984Z,2.47
2022-08-22T00:21:08.596Z,3.03
2022-08-22T00:23:40.947Z,2.60
2022-08-22T00:26:29.368Z,2.78
2022-08-22T00:29:04.716Z,3.75
2022-08-22T00:31:46.234Z,3.42
2022-08-22T00:34:24.278Z,3.70
2022-08-22T00:37:09.537Z,3.00
2022-08-22T00:39:48.416Z,3.78
2022-08-22T00:42:42.084Z,3.45
2022-08-22T00:45:32.173Z,3.30
2022-08-22T00:48:17.377Z,3.45
2022-08-22T00:51:15.505Z,4.00
2022-08-22T00:53:48.733Z,3.45
2022-08-22T00:56:35.860Z,3.50
2022-08-22T00:59:23.322Z,3.28
2022-08-22T01:02:14.627Z,3.17
2022-08-22T01:04:49.611Z,3.28
2022-08-22T01:07:48.372Z,3.30
2022-08-22T01:10:35.341Z,3.03
2022-08-22T01:13:34.483Z,3.35
2022-08-22T01:16:27.264Z,3.88
2022-08-22T01:19:09.027Z,3.97
2022-08-22T01:22:11.050Z,4.00
2022-08-22T01:25:18.339Z,3.15
2022-08-22T01:28:07.321Z,3.25
2022-08-22T01:31:06.753Z,3.58
2022-08-22T01:34:16.470Z,3.03
2022-08-22T01:37:07.510Z,3.45
2022-08-22T01:40:01.419Z,3.58
2022-08-22T01:42:34.554Z,3.75
2022-08-22T01:45:14.771Z,4.30
2022-08-22T01:47:41.415Z,3.67
2022-08-22T01:50:32.708Z,4.10
2022-08-22T01:53:30.999Z,4.25
2022-08-22T01:56:03.832Z,3.60
2022-08-22T01:58:33.406Z,4.13
2022-08-22T02:01:31.118Z,3.42
2022-08-22T02:04:18.207Z,3.30
2022-08-22T02:07:02.455Z,3.15
2022-08-22T02:09:46.265Z,3.13
2022-08-22T02:12:36.214Z,3.53
2022-08-22T02:15:18.876Z,3.53
2022-08-22T02:18:15.494Z,3.53
2022-08-22T02:20:48.637Z,3.20
2022-08-22T02:23:31.943Z,3.67
2022-08-22T02:26:01.492Z,3.22
2022-08-22T02:28:57.938Z,3.72
2022-08-22T02:31:40.057Z,3.22
2022-08-22T02:34:34.579Z,3.47
2022-08-22T02:37:15.075Z,3.60
2022-08-22T02:39:57.000Z,3.58
2022-08-22T02:42:46.209Z,2.88
2022-08-22T02:45:25.288Z,3.30
2022-08-22T02:48:17.806Z,3.30
2022-08-22T02:50:51.842Z,3.30
2022-08-22T02:53:47.491Z,3.10
2022-08-22T02:56:23.613Z,3.15
2022-08-22T02:59:17.460Z,3.63
2022-08-22T03:01:46.623Z,3.20
2022-08-22T03:04:22.285Z,3.47
2022-08-22T03:07:08.113Z,2.70
2022-08-22T03:09:41.340Z,3.80
2022-08-22T03:12:32.129Z,3.33
2022-08-22T03:15:02.039Z,3.38
2022-08-22T03:17:34.559Z,4.45
2022-08-22T03:20:11.521Z,3.72
2022-08-22T03:22:59.977Z,3.83
2022-08-22T03:25:30.910Z,4.15
2022-08-22T03:28:12.182Z,3.50
2022-08-22T03:31:07.032Z,3.65
2022-08-22T03:33:33.804Z,3.42
2022-08-22T03:36:11.464Z,4.03
2022-08-22T03:38:48.144Z,3.53
2022-08-22T03:41:55.082Z,3.88
2022-08-22T03:44:37.785Z,3.53
2022-08-22T03:47:28.631Z,3.25
2022-08-22T03:50:31.388Z,2.72
2022-08-22T03:53:16.260Z,3.33
2022-08-22T03:56:10.604Z,3.40
2022-08-22T03:59:01.411Z,3.28
2022-08-22T04:01:52.468Z,3.15
2022-08-22T04:04:24.824Z,3.03
2022-08-22T04:07:15.815Z,3.75
2022-08-22T04:10:03.384Z,4.15
2022-08-22T04:12:42.518Z,3.38
2022-08-22T04:15:40.632Z,3.22
2022-08-22T04:18:25.978Z,4.13
2022-08-22T04:21:32.313Z,3.80
2022-08-22T04:24:13.630Z,4.00
2022-08-22T04:26:49.753Z,3.40
2022-08-22T04:29:36.989Z,3.83
2022-08-22T04:32:36.370Z,3.92
2022-08-22T04:35:11.889Z,3.92
2022-08-22T04:37:57.031Z,3.88
2022-08-22T04:40:50.207Z,3.83
2022-08-22T04:43:39.499Z,3.70
2022-08-22T04:46:11.524Z,3.53
2022-08-22T04:48:52.965Z,3.30
2022-08-22T04:51:27.276Z,3.60
2022-08-22T04:54:15.369Z,3.10
2022-08-22T04:57:21.207Z,3.67
2022-08-22T04:59:49.704Z,3.63
2022-08-22T05:02:24.020Z,3.28
2022-08-22T05:05:19.250Z,3.40
2022-08-22T05:07:59.585Z,4.05
2022-08-22T05:10:50.129Z,4.20
2022-08-22T05:13:25.386Z,3.58
2022-08-22T05:15:57.316Z,3.40
2022-08-22T05:18:29.783Z,3.65
2022-08-22T05:21:01.571Z,3.83
2022-08-22T05:23:39.575Z,3.78
2022-08-22T05:26:08.080Z,3.97
2022-08-22T05:28:38.600Z,3.78
2022-08-22T05:31:20.095Z,4.38
2022-08-22T05:33:57.805Z,3.90
2022-08-22T05:36:45.386Z,3.78
2022-08-22T05:39:17.459Z,4.13
2022-08-22T05:41:44.657Z,4.68
2022-08-22T05:44:26.929Z,4.07
2022-08-22T05:47:12.189Z,4.20
2022-08-22T05:50:02.376Z,3.22
2022-08-22T05:52:59.825Z,3.65
2022-08-22T05:55:33.085Z,2.97
2022-08-22T05:58:17.728Z,3.33
2022-08-22T06:00:48.711Z,3.28
2022-08-22T06:03:27.764Z,3.13
2022-08-22T06:05:59.353Z,2.97
2022-08-22T06:08:34.440Z,2.80
2022-08-22T06:11:14.512Z,2.63
2022-08-22T06:13:52.927Z,2.72
2022-08-22T06:16:24.773Z,3.40
2022-08-22T06:18:52.617Z,2.75
2022-08-22T06:21:26.171Z,2.95
2022-08-22T06:23:57.620Z,2.88
2022-08-22T06:26:34.632Z,2.63
2022-08-22T06:29:02.610Z,2.55
2022-08-22T06:31:31.935Z,2.97
2022-08-22T06:34:08.668Z,2.70
2022-08-22T06:36:38.708Z,2.42
2022-08-22T06:39:29.412Z,2.67
2022-08-22T06:42:15.836Z,2.70
2022-08-22T06:45:06.900Z,2.97
2022-08-22T06:47:49.875Z,2.53
2022-08-22T06:50:35.082Z,2.42
2022-08-22T06:53:13.036Z,2.33
2022-08-22T06:55:46.326Z,2.50
2022-08-22T06:58:21.684Z,2.28
2022-08-22T07:01:05.732Z,2.80
2022-08-22T07:03:43.438Z,2.22
2022-08-22T07:06:18.812Z,2.00
2022-08-22T07:08:46.457Z,2.25
2022-08-22T07:11:23.452Z,2.40
2022-08-22T07:14:06.427Z,1.70
2022-08-22T07:16:52.042Z,1.70
2022-08-22T07:19:29.345Z,1.88
2022-08-22T07:21:57.407Z,2.17
2022-08-22T07:24:32.657Z,1.90
2022-08-22T07:27:38.349Z,2.00
2022-08-22T07:30:14.026Z,2.47
2022-08-22T07:32:49.187Z,2.35
2022-08-22T07:35:24.087Z,1.88
2022-08-22T07:41:20.032Z,1.80
2022-08-22T07:44:22.704Z,2.35
2022-08-22T07:46:58.674Z,1.73
2022-08-22T07:49:36.126Z,2.13
2022-08-22T07:52:11.371Z,2.08
2022-08-22T07:54:44.822Z,2.10
2022-08-22T07:57:34.442Z,1.75
2022-08-22T08:00:05.232Z,1.83
2022-08-22T08:02:32.262Z,1.90
2022-08-22T08:05:00.500Z,2.15
2022-08-22T08:07:32.750Z,2.15
2022-08-22T08:10:11.150Z,1.83
2022-08-22T08:12:56.156Z,2.22
2022-08-22T08:15:32.369Z,1.83
2022-08-22T08:18:05.848Z,2.20
2022-08-22T08:20:35.765Z,1.63
2022-08-22T08:23:05.422Z,1.73
2022-08-22T08:25:36.372Z,1.73
2022-08-22T08:28:23.168Z,1.42
2022-08-22T08:31:01.729Z,1.90
2022-08-22T08:33:32.193Z,1.58
2022-08-22T08:36:37.862Z,1.73
2022-08-22T08:39:20.835Z,1.70
2022-08-22T08:42:09.326Z,1.55
2022-08-22T08:45:03.788Z,1.42
2022-08-22T08:47:36.337Z,1.33
2022-08-22T08:50:34.564Z,1.98
2022-08-22T08:53:26.988Z,1.73
2022-08-22T08:56:20.595Z,1.85
2022-08-22T08:58:59.872Z,2.20
2022-08-22T09:02:04.446Z,1.63
2022-08-22T09:04:49.495Z,2.05
2022-08-22T09:07:41.261Z,2.08
2022-08-22T09:10:32.146Z,1.80
2022-08-22T09:13:14.390Z,1.92
2022-08-22T09:16:05.769Z,1.63
2022-08-22T09:18:46.855Z,1.70
2022-08-22T09:21:32.179Z,1.95
2022-08-22T09:24:35.167Z,1.90
2022-08-22T09:27:08.976Z,1.60
2022-08-22T09:29:54.654Z,1.85
2022-08-22T09:32:44.426Z,1.70
2022-08-22T09:35:49.596Z,1.60
2022-08-22T09:38:31.236Z,2.25
2022-08-22T09:41:44.361Z,1.52
2022-08-22T09:44:31.193Z,1.73
2022-08-22T09:51:08.322Z,1.90
2022-08-22T09:53:50.404Z,2.20
2022-08-22T09:56:33.736Z,2.10
2022-08-22T09:59:09.870Z,1.67
2022-08-22T10:01:58.167Z,2.13
2022-08-22T10:04:51.545Z,1.83
2022-08-22T10:07:33.429Z,1.90
2022-08-22T10:10:26.284Z,1.67
2022-08-22T10:13:20.923Z,1.40
2022-08-22T10:16:11.716Z,1.50
2022-08-22T10:19:00.524Z,1.60
2022-08-22T10:21:46.432Z,1.60
2022-08-22T10:24:44.039Z,1.73
2022-08-22T10:27:40.226Z,1.50
2022-08-22T10:30:13.371Z,1.60
2022-08-22T10:33:01.682Z,2.00
2022-08-22T10:35:39.738Z,1.88
2022-08-22T10:38:16.531Z,2.05
2022-08-22T10:40:55.735Z,1.65
2022-08-22T10:43:56.545Z,1.50
2022-08-22T10:46:42.168Z,1.55
2022-08-22T10:49:19.525Z,1.70
2022-08-22T10:52:03.836Z,2.05
2022-08-22T10:54:51.164Z,1.38
2022-08-22T10:57:44.119Z,1.70
2022-08-22T11:00:30.232Z,1.73
2022-08-22T11:03:24.933Z,1.60
2022-08-22T11:05:58.011Z,1.88
2022-08-22T11:08:50.948Z,1.85
2022-08-22T11:11:23.481Z,2.00
2022-08-22T11:14:21.038Z,1.70
2022-08-22T11:17:28.072Z,1.73
2022-08-22T11:20:08.973Z,1.75
2022-08-22T11:23:06.686Z,1.60
2022-08-22T11:25:44.045Z,1.48
2022-08-22T11:28:19.667Z,1.95
2022-08-22T11:30:57.785Z,2.03
2022-08-22T11:34:00.808Z,1.55
2022-08-22T11:36:51.514Z,1.60
2022-08-22T11:39:33.720Z,1.90
2022-08-22T11:42:31.160Z,2.00
2022-08-22T11:45:00.980Z,1.50
2022-08-22T11:47:32.976Z,1.77
2022-08-22T11:50:23.415Z,1.90
2022-08-22T11:53:20.192Z,1.73
2022-08-22T11:55:53.728Z,1.50
2022-08-22T11:58:32.168Z,1.55
2022-08-22T12:01:04.580Z,1.40
2022-08-22T12:03:43.088Z,1.55
2022-08-22T12:06:46.831Z,1.63
2022-08-22T12:09:33.753Z,1.23
2022-08-22T12:12:13.878Z,1.40
2022-08-22T12:15:05.523Z,1.23
2022-08-22T12:18:01.915Z,1.80
2022-08-22T12:21:11.322Z,1.45
2022-08-22T12:23:52.679Z,1.70
2022-08-22T12:27:00.444Z,1.52
2022-08-22T12:29:47.168Z,1.65
2022-08-22T12:32:49.102Z,1.70
2022-08-22T12:35:37.083Z,1.75
2022-08-22T12:38:34.834Z,1.40
2022-08-22T12:41:27.865Z,1.63
2022-08-22T12:44:21.220Z,1.10
2022-08-22T12:47:12.042Z,1.40
2022-08-22T12:50:13.095Z,1.20
2022-08-22T12:52:56.295Z,1.10
2022-08-22T12:55:48.745Z,1.60
2022-08-22T12:58:34.576Z,1.30
2022-08-22T13:01:06.624Z,1.30
2022-08-22T13:03:59.223Z,1.50
2022-08-22T13:06:35.193Z,1.35
2022-08-22T13:09:11.108Z,1.30
2022-08-22T13:11:40.516Z,1.40
2022-08-22T13:14:09.970Z,1.83
2022-08-22T13:16:49.133Z,1.60
2022-08-22T13:19:22.219Z,1.58
2022-08-22T13:21:56.805Z,1.33
2022-08-22T13:24:52.345Z,1.55
2022-08-22T13:27:40.215Z,1.65
2022-08-22T13:30:37.534Z,1.42
2022-08-22T13:33:04.436Z,1.60
2022-08-22T13:35:51.971Z,1.35
2022-08-22T13:38:25.806Z,1.50
2022-08-22T13:40:54.737Z,1.73
2022-08-22T13:43:25.208Z,1.67
2022-08-22T13:46:03.084Z,1.30
2022-08-22T13:48:50.410Z,1.58
2022-08-22T13:51:46.529Z,1.50
2022-08-22T13:54:16.178Z,1.30
2022-08-22T13:56:54.949Z,1.42
2022-08-22T13:59:52.527Z,1.50
2022-08-22T14:02:31.001Z,1.30
2022-08-22T14:05:09.192Z,1.35
2022-08-22T14:07:58.242Z,1.58
2022-08-22T14:10:31.428Z,1.55
2022-08-22T14:12:58.000Z,1.50
2022-08-22T14:15:32.298Z,1.45
2022-08-22T14:18:30.405Z,1.52
2022-08-22T14:21:40.920Z,1.40
2022-08-22T14:24:25.730Z,1.40
2022-08-22T14:27:35.546Z,1.65
2022-08-22T14:30:17.325Z,1.50
2022-08-22T14:32:57.633Z,1.23
2022-08-22T14:35:35.415Z,1.35
2022-08-22T14:38:35.090Z,1.30
2022-08-22T14:41:05.277Z,1.70
2022-08-22T14:43:31.965Z,1.48
2022-08-22T14:46:09.720Z,1.65
2022-08-22T14:48:44.341Z,1.42
2022-08-22T14:51:21.373Z,1.45
2022-08-22T14:53:50.056Z,1.42
2022-08-22T14:56:24.204Z,1.23
2022-08-22T14:59:06.630Z,1.40
2022-08-22T15:01:51.286Z,1.55
2022-08-22T15:04:37.213Z,1.60
2022-08-22T15:07:06.153Z,1.33
2022-08-22T15:09:58.311Z,1.50
2022-08-22T15:12:33.341Z,1.52
2022-08-22T15:15:05.631Z,1.73
2022-08-22T15:17:37.094Z,1.27
2022-08-22T15:20:28.482Z,1.60
2022-08-22T15:23:14.890Z,1.20
2022-08-22T15:25:46.887Z,1.40
2022-08-22T15:28:20.067Z,1.60
2022-08-22T15:30:58.666Z,1.55
2022-08-22T15:33:32.184Z,1.15
2022-08-22T15:36:19.902Z,1.30
2022-08-22T15:38:55.791Z,1.13
2022-08-22T15:41:31.464Z,2.05
2022-08-22T15:44:32.216Z,1.63
2022-08-22T15:47:04.581Z,1.45
2022-08-22T15:49:36.608Z,1.23
2022-08-22T15:52:11.086Z,1.55
2022-08-22T15:54:57.158Z,1.10
2022-08-22T15:57:34.834Z,1.40
2022-08-22T16:00:12.036Z,1.38
2022-08-22T16:03:10.896Z,1.80
2022-08-22T16:05:41.486Z,1.70
2022-08-22T16:08:19.889Z,1.13
2022-08-22T16:11:10.050Z,1.70
2022-08-22T16:13:40.017Z,1.23
2022-08-22T16:16:12.347Z,1.40
2022-08-22T16:18:43.435Z,1.52
2022-08-22T16:21:16.571Z,1.35
2022-08-22T16:23:56.716Z,1.35
2022-08-22T16:26:29.435Z,1.35
2022-08-22T16:29:07.146Z,1.70
2022-08-22T16:31:46.099Z,1.30
2022-08-22T16:34:23.937Z,1.38
2022-08-22T16:37:12.094Z,1.92
2022-08-22T16:39:41.064Z,1.70
2022-08-22T16:42:19.369Z,1.67
2022-08-22T16:44:50.207Z,1.52
2022-08-22T16:47:42.813Z,1.80
2022-08-22T16:50:19.006Z,1.50
2022-08-22T16:53:00.791Z,1.90
2022-08-22T16:55:30.378Z,1.60
2022-08-22T16:58:19.997Z,1.80
2022-08-22T17:01:14.555Z,1.80
2022-08-22T17:04:04.532Z,1.63
2022-08-22T17:06:49.690Z,1.58
2022-08-22T17:09:34.611Z,1.35
2022-08-22T17:12:01.398Z,1.95
2022-08-22T17:15:04.370Z,1.45
2022-08-22T17:17:38.265Z,1.50
2022-08-22T17:20:19.958Z,1.52
2022-08-22T17:23:14.716Z,1.65
2022-08-22T17:25:47.091Z,1.80
2022-08-22T17:28:34.021Z,1.80
2022-08-22T17:31:08.208Z,1.75
2022-08-22T17:33:40.970Z,2.03
2022-08-22T17:36:49.176Z,1.70
2022-08-22T17:39:30.694Z,1.80
2022-08-22T17:42:00.219Z,2.08
2022-08-22T17:44:39.366Z,1.65
2022-08-22T17:47:33.795Z,2.00
2022-08-22T17:50:18.567Z,2.20
2022-08-22T17:52:51.501Z,1.85
2022-08-22T17:55:25.587Z,2.15
2022-08-22T17:58:11.614Z,1.90
2022-08-22T18:00:50.010Z,1.90
2022-08-22T18:03:38.551Z,2.13
2022-08-22T18:06:26.009Z,1.83
2022-08-22T18:09:17.271Z,2.20
2022-08-22T18:11:55.883Z,1.80
2022-08-22T18:14:36.519Z,1.80
2022-08-22T18:17:21.713Z,2.00
2022-08-22T18:20:10.217Z,2.00
2022-08-22T18:22:39.958Z,2.00
2022-08-22T18:25:19.007Z,2.10
2022-08-22T18:27:52.069Z,2.05
2022-08-22T18:30:31.258Z,2.17
2022-08-22T18:33:22.954Z,1.88
2022-08-22T18:35:59.208Z,2.25
2022-08-22T18:38:57.468Z,1.70
2022-08-22T18:41:41.527Z,2.15
2022-08-22T18:44:20.468Z,1.90
2022-08-22T18:46:52.877Z,2.15
2022-08-22T18:49:22.162Z,2.40
2022-08-22T18:52:12.521Z,1.88
2022-08-22T18:55:06.724Z,2.00
2022-08-22T18:57:51.498Z,1.85
2022-08-22T19:00:22.275Z,2.28
2022-08-22T19:03:12.691Z,1.95
2022-08-22T19:06:21.629Z,1.90
2022-08-22T19:09:17.249Z,1.60
2022-08-22T19:12:11.870Z,2.20
2022-08-22T19:15:13.482Z,2.30
2022-08-22T19:18:09.874Z,2.15
2022-08-22T19:20:57.882Z,2.38
2022-08-22T19:23:43.365Z,2.20
2022-08-22T19:26:37.904Z,2.15
2022-08-22T19:29:33.777Z,2.10
2022-08-22T19:32:12.745Z,1.88
2022-08-22T19:34:46.914Z,2.05
2022-08-22T19:37:32.436Z,2.28
2022-08-22T19:40:40.712Z,2.30
2022-08-22T19:43:35.998Z,1.98
2022-08-22T19:46:13.203Z,2.35
2022-08-22T19:48:47.516Z,2.00
2022-08-22T19:51:26.248Z,2.03
2022-08-22T20:04:44.823Z,2.50
2022-08-22T20:07:34.786Z,2.10
2022-08-22T20:10:17.956Z,2.22
2022-08-22T20:13:07.599Z,2.10
2022-08-22T20:16:13.594Z,2.13
2022-08-22T20:19:06.364Z,2.38
2022-08-22T20:21:52.451Z,2.17
2022-08-22T20:24:27.284Z,2.03
2022-08-22T20:27:13.315Z,2.10
2022-08-22T20:29:49.971Z,2.33
2022-08-22T20:32:20.414Z,1.85
2022-08-22T20:34:50.390Z,2.60
2022-08-22T20:38:02.778Z,2.55
2022-08-22T20:40:56.568Z,2.38
2022-08-22T20:43:42.583Z,2.53
2022-08-22T20:46:36.673Z,2.28
2022-08-22T20:49:05.107Z,2.85
2022-08-22T20:51:33.506Z,2.28
2022-08-22T20:54:15.630Z,1.85
2022-08-22T20:56:52.979Z,2.25
2022-08-22T20:59:25.739Z,2.47
2022-08-22T21:02:05.009Z,2.15
2022-08-22T21:04:42.642Z,2.10
2022-08-22T21:07:10.489Z,2.13
2022-08-22T21:09:55.658Z,2.22
2022-08-22T21:12:24.034Z,2.33
2022-08-22T21:14:50.727Z,2.20
2022-08-22T21:17:23.057Z,2.40
2022-08-22T21:19:50.441Z,2.22
2022-08-22T21:22:25.622Z,2.90
2022-08-22T21:24:58.807Z,2.20
2022-08-22T21:27:33.403Z,2.40
2022-08-22T21:30:02.832Z,2.30
2022-08-22T21:32:33.902Z,2.35
2022-08-22T21:35:02.434Z,2.17
2022-08-22T21:37:44.863Z,2.03
2022-08-22T21:40:32.170Z,2.60
2022-08-22T21:43:08.594Z,2.28
2022-08-22T21:45:38.222Z,2.50
2022-08-22T21:48:39.292Z,2.08
2022-08-22T21:51:24.900Z,2.25
2022-08-22T21:54:16.080Z,2.00
2022-08-22T21:56:38.394Z,2.47
2022-08-22T21:59:50.968Z,1.98
2022-08-22T22:02:50.617Z,2.17
2022-08-22T22:05:18.282Z,2.35
2022-08-22T22:07:46.963Z,2.17
2022-08-22T22:10:18.086Z,2.30
2022-08-22T22:12:47.720Z,2.33
2022-08-22T22:15:19.039Z,2.17
2022-08-22T22:17:45.997Z,2.33
2022-08-22T22:20:15.477Z,2.00
2022-08-22T22:22:46.669Z,2.10
2022-08-22T22:25:40.650Z,2.10
2022-08-22T22:28:23.312Z,2.30
2022-08-22T22:30:53.995Z,2.20
2022-08-22T22:33:34.755Z,2.45
2022-08-22T22:36:22.692Z,1.95
2022-08-22T22:38:52.337Z,2.05
2022-08-22T22:41:23.347Z,2.40
2022-08-22T22:43:50.257Z,1.90
2022-08-22T22:46:24.759Z,2.17
2022-08-22T22:48:52.028Z,2.10
2022-08-22T22:51:19.703Z,2.38
2022-08-22T22:53:47.571Z,2.20
2022-08-22T22:56:23.896Z,2.33
2022-08-22T22:59:00.605Z,2.10
2022-08-22T23:01:28.094Z,2.30
2022-08-22T23:03:58.415Z,2.10
2022-08-22T23:06:32.083Z,2.58
2022-08-22T23:08:58.785Z,2.17
2022-08-22T23:11:28.662Z,2.75
2022-08-22T23:13:56.174Z,2.33
2022-08-22T23:16:28.123Z,2.10
2022-08-22T23:18:55.516Z,2.10
2022-08-22T23:21:28.916Z,2.35
2022-08-22T23:23:58.518Z,2.20
2022-08-22T23:26:25.824Z,2.70
2022-08-22T23:28:52.769Z,2.65
2022-08-22T23:31:40.126Z,2.40
2022-08-22T23:34:17.697Z,2.60
2022-08-22T23:36:46.659Z,2.60
2022-08-22T23:39:15.607Z,2.38
2022-08-22T23:41:42.811Z,2.30
2022-08-22T23:44:13.694Z,2.22
2022-08-22T23:46:42.064Z,2.60
2022-08-22T23:49:08.762Z,2.40
2022-08-22T23:51:35.947Z,2.22
2022-08-22T23:54:03.268Z,2.30
2022-08-22T23:56:42.224Z,1.98
2022-08-22T23:59:13.375Z,2.70
